createdAt,value
2022-08-24T00:01:57.593Z,100520.00
2022-08-24T00:06:58.414Z,100527.06
2022-08-24T00:12:00.617Z,100526.28
2022-08-24T00:17:02.262Z,100530.47
2022-08-24T00:22:03.338Z,100532.16
2022-08-24T00:27:06.507Z,100524.53
2022-08-24T00:32:07.634Z,100527.44
2022-08-24T00:37:08.386Z,100520.56
2022-08-24T00:42:10.426Z,100526.28
2022-08-24T00:47:16.997Z,100520.16
2022-08-24T00:52:24.802Z,100517.50
2022-08-24T00:57:31.514Z,100510.94
2022-08-24T01:02:34.905Z,100517.53
2022-08-24T01:07:37.676Z,100527.69
2022-08-24T01:12:48.168Z,100532.91
2022-08-24T01:18:20.389Z,100522.88
2022-08-24T01:23:40.381Z,100525.19
2022-08-24T01:28:43.952Z,100528.38
2022-08-24T01:33:45.420Z,100526.00
2022-08-24T01:38:49.133Z,100517.53
2022-08-24T01:43:49.846Z,100520.94
2022-08-24T01:48:50.566Z,100520.94
2022-08-24T01:53:52.604Z,100505.47
2022-08-24T01:58:53.664Z,100511.72
2022-08-24T02:03:54.555Z,100515.84
2022-08-24T02:08:58.347Z,100520.38
2022-08-24T02:13:59.411Z,100515.31
2022-08-24T02:19:02.204Z,100511.47
2022-08-24T02:24:05.313Z,100518.94
2022-08-24T02:29:06.108Z,100512.81
2022-08-24T02:34:06.948Z,100511.66
2022-08-24T02:39:10.050Z,100512.13
2022-08-24T02:44:11.879Z,100514.16
2022-08-24T02:49:12.900Z,100517.00
2022-08-24T02:54:18.343Z,100526.97
2022-08-24T02:59:20.665Z,100527.94
2022-08-24T03:04:22.775Z,100536.72
2022-08-24T03:09:24.842Z,100546.69
2022-08-24T03:14:31.674Z,100541.63
2022-08-24T03:19:33.245Z,100543.31
2022-08-24T03:24:35.393Z,100543.53
2022-08-24T03:29:36.685Z,100547.94
2022-08-24T03:34:37.898Z,100555.81
2022-08-24T03:39:41.066Z,100557.72
2022-08-24T03:44:42.193Z,100559.09
2022-08-24T03:49:43.319Z,100563.59
2022-08-24T03:54:45.421Z,100567.16
2022-08-24T03:59:47.518Z,100573.59
2022-08-24T04:04:48.711Z,100576.84
2022-08-24T04:09:50.796Z,100584.63
2022-08-24T04:14:52.788Z,100575.75
2022-08-24T04:19:59.408Z,100575.50
2022-08-24T04:25:11.454Z,100574.63
2022-08-24T04:30:15.048Z,100572.78
2022-08-24T04:35:40.321Z,100570.91
2022-08-24T04:40:44.560Z,100576.06
2022-08-24T04:45:50.591Z,100573.78
2022-08-24T04:50:51.783Z,100580.16
2022-08-24T04:55:53.894Z,100584.16
2022-08-24T05:00:55.429Z,100589.84
2022-08-24T05:05:56.328Z,100598.22
2022-08-24T05:10:58.665Z,100600.97
2022-08-24T05:16:02.383Z,100600.25
2022-08-24T05:21:03.317Z,100599.13
2022-08-24T05:26:11.966Z,100599.81
2022-08-24T05:31:15.675Z,100608.53
2022-08-24T05:36:19.040Z,100613.09
2022-08-24T05:41:22.635Z,100614.53
2022-08-24T05:46:31.638Z,100620.50
2022-08-24T05:51:33.817Z,100620.78
2022-08-24T05:56:40.841Z,100622.50
2022-08-24T06:01:45.334Z,100630.94
2022-08-24T06:06:48.653Z,100626.06
2022-08-24T06:11:51.819Z,100621.53
2022-08-24T06:16:53.130Z,100626.28
2022-08-24T06:21:56.441Z,100629.38
2022-08-24T06:27:18.778Z,100627.22
2022-08-24T06:32:19.677Z,100623.09
2022-08-24T06:37:20.766Z,100631.06
2022-08-24T06:42:24.842Z,100625.22
2022-08-24T06:47:25.554Z,100633.44
2022-08-24T06:52:34.224Z,100634.59
2022-08-24T06:57:36.283Z,100650.09
2022-08-24T07:02:37.482Z,100654.34
2022-08-24T07:07:39.345Z,100648.78
2022-08-24T07:12:41.608Z,100643.56
2022-08-24T07:17:42.781Z,100650.66
2022-08-24T07:22:44.761Z,100645.94
2022-08-24T07:27:47.858Z,100651.16
2022-08-24T07:32:49.637Z,100651.16
2022-08-24T07:37:51.105Z,100654.47
2022-08-24T07:42:57.970Z,100656.50
2022-08-24T07:53:15.035Z,100659.09
2022-08-24T07:58:20.268Z,100664.94
2022-08-24T08:03:23.448Z,100668.16
2022-08-24T08:08:24.790Z,100663.25
2022-08-24T08:13:27.257Z,100668.31
2022-08-24T08:18:28.767Z,100673.03
2022-08-24T08:23:49.227Z,100679.78
2022-08-24T08:29:01.039Z,100682.81
2022-08-24T08:34:02.032Z,100677.75
2022-08-24T08:39:03.358Z,100675.00
2022-08-24T08:44:14.692Z,100673.63
2022-08-24T08:49:35.199Z,100670.84
2022-08-24T08:54:48.706Z,100677.63
2022-08-24T09:00:10.470Z,100673.03
2022-08-24T09:05:40.777Z,100674.47
2022-08-24T09:10:55.603Z,100671.63
2022-08-24T09:16:17.136Z,100676.91
2022-08-24T09:21:46.524Z,100665.66
2022-08-24T09:27:00.874Z,100673.53
2022-08-24T09:32:24.947Z,100672.97
2022-08-24T09:37:33.812Z,100677.66
2022-08-24T09:42:55.792Z,100673.56
2022-08-24T09:48:27.638Z,100665.06
2022-08-24T09:53:44.657Z,100658.94
2022-08-24T09:59:00.494Z,100648.72
2022-08-24T10:04:12.535Z,100637.59
2022-08-24T10:09:35.055Z,100641.75
2022-08-24T10:14:51.283Z,100633.09
2022-08-24T10:20:05.171Z,100645.56
2022-08-24T10:25:28.501Z,100634.34
2022-08-24T10:30:56.314Z,100627.50
2022-08-24T10:36:16.308Z,100626.06
2022-08-24T10:42:05.968Z,100624.34
2022-08-24T10:47:16.635Z,100632.94
2022-08-24T10:52:47.811Z,100626.91
2022-08-24T10:58:00.741Z,100634.44
2022-08-24T11:03:12.733Z,100628.03
2022-08-24T11:08:22.334Z,100625.97
2022-08-24T11:13:26.002Z,100642.34
2022-08-24T11:18:27.687Z,100634.81
2022-08-24T11:23:38.007Z,100635.63
2022-08-24T11:28:41.283Z,100632.16
2022-08-24T11:33:49.606Z,100626.69
2022-08-24T11:39:12.809Z,100641.31
2022-08-24T11:44:23.626Z,100632.44
2022-08-24T11:49:35.816Z,100636.19
2022-08-24T11:54:43.723Z,100635.41
2022-08-24T11:59:55.004Z,100634.06
2022-08-24T12:05:04.137Z,100634.06
2022-08-24T12:10:21.848Z,100633.00
2022-08-24T12:15:41.565Z,100629.94
2022-08-24T12:20:48.145Z,100627.50
2022-08-24T12:26:02.874Z,100621.84
2022-08-24T12:31:10.346Z,100620.09
2022-08-24T12:36:27.930Z,100620.78
2022-08-24T12:41:34.397Z,100614.78
2022-08-24T12:46:36.049Z,100601.38
2022-08-24T12:51:53.337Z,100608.31
2022-08-24T12:57:25.344Z,100604.59
2022-08-24T13:02:33.556Z,100613.97
2022-08-24T13:07:41.213Z,100609.28
2022-08-24T13:13:09.299Z,100604.25
2022-08-24T13:18:47.736Z,100605.22
2022-08-24T13:23:49.404Z,100600.63
2022-08-24T13:28:56.623Z,100595.63
2022-08-24T13:34:00.727Z,100597.78
2022-08-24T13:39:26.134Z,100597.75
2022-08-24T13:44:42.417Z,100596.81
2022-08-24T13:49:54.204Z,100589.84
2022-08-24T13:55:10.285Z,100590.78
2022-08-24T14:00:45.981Z,100591.69
2022-08-24T14:05:52.064Z,100600.06
2022-08-24T14:11:09.825Z,100588.63
2022-08-24T14:16:48.809Z,100590.03
2022-08-24T14:22:00.728Z,100582.38
2022-08-24T14:27:09.162Z,100588.56
2022-08-24T14:32:33.255Z,100587.09
2022-08-24T14:37:51.336Z,100581.47
2022-08-24T14:42:57.998Z,100580.28
2022-08-24T14:48:05.775Z,100571.00
2022-08-24T14:53:30.320Z,100573.59
2022-08-24T14:58:42.488Z,100576.34
2022-08-24T15:04:00.751Z,100562.41
2022-08-24T15:09:12.475Z,100571.94
2022-08-24T15:14:24.201Z,100560.00
2022-08-24T15:19:47.454Z,100559.22
2022-08-24T15:24:56.101Z,100548.59
2022-08-24T15:29:59.557Z,100546.34
2022-08-24T15:35:00.272Z,100542.22
2022-08-24T15:40:04.234Z,100543.28
2022-08-24T15:45:06.427Z,100539.72
2022-08-24T15:50:20.399Z,100539.53
2022-08-24T15:55:36.000Z,100535.94
2022-08-24T16:00:55.852Z,100533.28
2022-08-24T16:06:16.765Z,100531.81
2022-08-24T16:11:30.335Z,100527.88
2022-08-24T16:16:40.083Z,100528.81
2022-08-24T16:21:51.986Z,100531.53
2022-08-24T16:27:01.286Z,100535.75
2022-08-24T16:32:11.055Z,100537.91
2022-08-24T16:37:25.245Z,100535.28
2022-08-24T16:42:30.054Z,100527.78
2022-08-24T16:47:30.811Z,100532.16
2022-08-24T16:52:31.574Z,100524.69
2022-08-24T16:57:36.458Z,100526.50
2022-08-24T17:02:37.718Z,100521.72
2022-08-24T17:07:39.008Z,100526.16
2022-08-24T17:12:41.063Z,100526.59
2022-08-24T17:17:42.050Z,100534.38
2022-08-24T17:22:42.827Z,100535.19
2022-08-24T17:27:45.324Z,100537.78
2022-08-24T17:32:46.228Z,100542.47
2022-08-24T17:37:47.350Z,100550.31
2022-08-24T17:42:51.682Z,100561.56
2022-08-24T17:47:53.514Z,100563.06
2022-08-24T17:52:56.251Z,100564.25
2022-08-24T17:58:03.062Z,100568.13
2022-08-24T18:03:04.022Z,100572.25
2022-08-24T18:08:05.936Z,100583.47
2022-08-24T18:13:10.070Z,100583.44
2022-08-24T18:18:12.290Z,100591.09
2022-08-24T18:23:13.093Z,100581.69
2022-08-24T18:28:23.907Z,100596.91
2022-08-24T18:33:24.792Z,100594.41
2022-08-24T18:38:26.771Z,100600.13
2022-08-24T18:43:29.289Z,100601.19
2022-08-24T18:48:30.088Z,100615.84
2022-08-24T18:53:31.169Z,100615.50
2022-08-24T18:58:33.203Z,100620.72
2022-08-24T19:03:34.374Z,100615.00
2022-08-24T19:08:35.102Z,100627.69
2022-08-24T19:13:38.452Z,100622.28
2022-08-24T19:18:39.369Z,100615.81
2022-08-24T19:23:41.021Z,100614.94
2022-08-24T19:28:43.107Z,100621.97
2022-08-24T19:33:46.788Z,100623.91
2022-08-24T19:38:50.732Z,100617.38
2022-08-24T19:44:23.560Z,100617.56
2022-08-24T19:49:28.471Z,100618.72
2022-08-24T19:54:34.136Z,100618.97
2022-08-24T19:59:43.042Z,100620.25
2022-08-24T20:04:43.718Z,100629.13
2022-08-24T20:09:44.547Z,100635.03
2022-08-24T20:14:46.778Z,100633.41
2022-08-24T20:19:47.665Z,100638.22
2022-08-24T20:24:48.431Z,100636.13
2022-08-24T20:29:51.003Z,100636.81
2022-08-24T20:34:51.725Z,100635.66
2022-08-24T20:39:55.353Z,100626.59
2022-08-24T20:44:57.438Z,100628.22
2022-08-24T20:49:58.181Z,100632.91
2022-08-24T20:54:58.960Z,100637.47
2022-08-24T21:00:01.032Z,100617.34
2022-08-24T21:05:01.877Z,100626.00
2022-08-24T21:10:02.625Z,100628.19
2022-08-24T21:15:04.961Z,100623.50
2022-08-24T21:20:06.252Z,100634.19
2022-08-24T21:25:09.370Z,100639.41
2022-08-24T21:30:14.677Z,100632.91
2022-08-24T21:35:15.565Z,100636.44
2022-08-24T21:40:16.378Z,100637.72
2022-08-24T21:45:18.785Z,100639.09
2022-08-24T21:50:19.640Z,100640.47
2022-08-24T21:55:27.718Z,100650.44
2022-08-24T22:00:34.194Z,100651.63
2022-08-24T22:05:35.546Z,100648.91
2022-08-24T22:10:36.404Z,100645.38
2022-08-24T22:15:38.495Z,100635.13
2022-08-24T22:20:39.271Z,100633.00
2022-08-24T22:25:39.955Z,100630.44
2022-08-24T22:30:43.083Z,100631.69
2022-08-24T22:35:45.408Z,100618.22
2022-08-24T22:40:46.466Z,100625.97
2022-08-24T22:45:50.476Z,100625.53
2022-08-24T22:50:51.158Z,100613.63
2022-08-24T22:55:51.834Z,100618.69
2022-08-24T23:00:54.098Z,100613.63
2022-08-24T23:05:54.806Z,100618.09
2022-08-24T23:10:55.492Z,100613.94
2022-08-24T23:16:01.341Z,100609.97
2022-08-24T23:21:02.093Z,100612.66
2022-08-24T23:26:04.165Z,100611.13
2022-08-24T23:31:08.087Z,100607.16
2022-08-24T23:36:10.058Z,100600.19
2022-08-24T23:41:14.394Z,100599.66
2022-08-24T23:46:17.975Z,100591.63
2022-08-24T23:51:20.763Z,100596.28
2022-08-24T23:56:26.052Z,100592.09
